Terminal Aerodrome Forecast
Issued by NWS Buffalo, NY

Home | Current Version | Previous Version | Text Only | Print | Product List | Glossary On
Versions: 1 2 3 4 5 6 7 8 9 10 11 12 13 14 15 16 17 18 19 20 21 22 23 24 25 26 27 28 29 30 31 32 33 34 35 36 37
608
FTUS41 KBUF 141725
TAFBUF
TAF
KBUF 141725Z 1418/1518 VRB03KT P6SM SKC
     FM150100 11004KT P6SM SCT200
     FM150900 15007KT P6SM BKN100
     FM151200 16008KT P6SM OVC070
     FM151500 17013KT P6SM VCSH OVC045=

USA.gov is the U.S. government's official web portal to all federal, state and local government web resources and services.